sensor_id;sensor_type;location;lat;lon;timestamp;P1;durP1;ratioP1;P2;durP2;ratioP2
77158;SDS011;66129;45.890;13.714;2023-12-20T00:02:23;28.35;;;13.07;;
77158;SDS011;66129;45.890;13.714;2023-12-20T00:04:48;22.38;;;12.25;;
77158;SDS011;66129;45.890;13.714;2023-12-20T00:07:14;14.82;;;8.95;;
77158;SDS011;66129;45.890;13.714;2023-12-20T00:09:39;19.10;;;10.85;;
77158;SDS011;66129;45.890;13.714;2023-12-20T00:12:05;17.08;;;10.18;;
77158;SDS011;66129;45.890;13.714;2023-12-20T00:14:30;21.52;;;11.27;;
77158;SDS011;66129;45.890;13.714;2023-12-20T00:16:56;20.30;;;9.93;;
77158;SDS011;66129;45.890;13.714;2023-12-20T00:19:21;17.92;;;9.48;;
77158;SDS011;66129;45.890;13.714;2023-12-20T00:21:47;13.75;;;9.30;;
77158;SDS011;66129;45.890;13.714;2023-12-20T00:24:12;14.38;;;8.65;;
77158;SDS011;66129;45.890;13.714;2023-12-20T00:26:37;17.73;;;8.32;;
77158;SDS011;66129;45.890;13.714;2023-12-20T00:29:03;18.92;;;8.18;;
77158;SDS011;66129;45.890;13.714;2023-12-20T00:31:28;14.02;;;7.80;;
77158;SDS011;66129;45.890;13.714;2023-12-20T00:33:54;15.07;;;9.02;;
77158;SDS011;66129;45.890;13.714;2023-12-20T00:36:20;12.98;;;8.80;;
77158;SDS011;66129;45.890;13.714;2023-12-20T00:38:45;23.58;;;10.57;;
77158;SDS011;66129;45.890;13.714;2023-12-20T00:41:11;17.85;;;10.55;;
77158;SDS011;66129;45.890;13.714;2023-12-20T00:43:36;16.55;;;8.88;;
77158;SDS011;66129;45.890;13.714;2023-12-20T00:46:02;18.58;;;9.52;;
77158;SDS011;66129;45.890;13.714;2023-12-20T00:48:27;18.33;;;8.07;;
77158;SDS011;66129;45.890;13.714;2023-12-20T00:50:55;14.90;;;7.60;;
77158;SDS011;66129;45.890;13.714;2023-12-20T00:53:20;14.77;;;7.78;;
77158;SDS011;66129;45.890;13.714;2023-12-20T00:55:46;15.35;;;7.88;;
77158;SDS011;66129;45.890;13.714;2023-12-20T00:58:11;14.60;;;7.07;;
77158;SDS011;66129;45.890;13.714;2023-12-20T01:00:37;15.93;;;7.22;;
77158;SDS011;66129;45.890;13.714;2023-12-20T01:03:03;16.42;;;8.73;;
77158;SDS011;66129;45.890;13.714;2023-12-20T01:05:28;16.10;;;8.32;;
77158;SDS011;66129;45.890;13.714;2023-12-20T01:07:54;17.92;;;9.75;;
77158;SDS011;66129;45.890;13.714;2023-12-20T01:10:19;16.02;;;8.63;;
77158;SDS011;66129;45.890;13.714;2023-12-20T01:12:45;13.88;;;8.43;;
77158;SDS011;66129;45.890;13.714;2023-12-20T01:15:10;13.40;;;6.97;;
77158;SDS011;66129;45.890;13.714;2023-12-20T01:17:36;11.15;;;6.88;;
77158;SDS011;66129;45.890;13.714;2023-12-20T01:20:02;14.20;;;6.90;;
77158;SDS011;66129;45.890;13.714;2023-12-20T01:22:27;13.18;;;6.63;;
77158;SDS011;66129;45.890;13.714;2023-12-20T01:24:53;14.50;;;6.90;;
77158;SDS011;66129;45.890;13.714;2023-12-20T01:27:18;11.32;;;7.07;;
77158;SDS011;66129;45.890;13.714;2023-12-20T01:29:44;12.30;;;6.60;;
77158;SDS011;66129;45.890;13.714;2023-12-20T01:32:09;10.98;;;6.82;;
77158;SDS011;66129;45.890;13.714;2023-12-20T01:34:35;16.42;;;7.60;;
77158;SDS011;66129;45.890;13.714;2023-12-20T01:37:01;16.50;;;7.35;;
77158;SDS011;66129;45.890;13.714;2023-12-20T01:39:27;18.10;;;8.77;;
77158;SDS011;66129;45.890;13.714;2023-12-20T01:41:53;19.33;;;8.75;;
77158;SDS011;66129;45.890;13.714;2023-12-20T01:44:18;19.92;;;8.50;;
77158;SDS011;66129;45.890;13.714;2023-12-20T01:46:44;13.95;;;8.27;;
77158;SDS011;66129;45.890;13.714;2023-12-20T01:49:10;13.43;;;7.13;;
77158;SDS011;66129;45.890;13.714;2023-12-20T01:51:36;17.25;;;8.07;;
77158;SDS011;66129;45.890;13.714;2023-12-20T01:54:02;17.85;;;8.13;;
77158;SDS011;66129;45.890;13.714;2023-12-20T01:56:28;16.95;;;8.68;;
77158;SDS011;66129;45.890;13.714;2023-12-20T01:58:55;14.07;;;7.45;;
77158;SDS011;66129;45.890;13.714;2023-12-20T02:01:21;13.98;;;7.43;;
77158;SDS011;66129;45.890;13.714;2023-12-20T02:03:47;16.60;;;7.18;;
77158;SDS011;66129;45.890;13.714;2023-12-20T02:06:13;14.48;;;7.40;;
77158;SDS011;66129;45.890;13.714;2023-12-20T02:08:39;14.82;;;8.50;;
77158;SDS011;66129;45.890;13.714;2023-12-20T02:11:05;14.02;;;8.57;;
77158;SDS011;66129;45.890;13.714;2023-12-20T02:13:30;16.83;;;8.40;;
77158;SDS011;66129;45.890;13.714;2023-12-20T02:15:56;19.25;;;9.50;;
77158;SDS011;66129;45.890;13.714;2023-12-20T02:18:22;22.15;;;10.07;;
77158;SDS011;66129;45.890;13.714;2023-12-20T02:20:47;15.68;;;9.32;;
77158;SDS011;66129;45.890;13.714;2023-12-20T02:23:13;18.27;;;9.50;;
77158;SDS011;66129;45.890;13.714;2023-12-20T02:25:38;17.20;;;9.13;;
77158;SDS011;66129;45.890;13.714;2023-12-20T02:28:04;18.65;;;9.00;;
77158;SDS011;66129;45.890;13.714;2023-12-20T02:30:31;16.67;;;8.43;;
77158;SDS011;66129;45.890;13.714;2023-12-20T02:32:56;15.27;;;8.82;;
77158;SDS011;66129;45.890;13.714;2023-12-20T02:35:24;18.95;;;9.32;;
77158;SDS011;66129;45.890;13.714;2023-12-20T02:37:50;14.70;;;8.10;;
77158;SDS011;66129;45.890;13.714;2023-12-20T02:40:15;17.42;;;7.57;;
77158;SDS011;66129;45.890;13.714;2023-12-20T02:42:41;12.85;;;8.00;;
77158;SDS011;66129;45.890;13.714;2023-12-20T02:45:06;13.32;;;6.88;;
77158;SDS011;66129;45.890;13.714;2023-12-20T02:47:32;12.95;;;7.78;;
77158;SDS011;66129;45.890;13.714;2023-12-20T02:49:58;13.90;;;7.60;;
77158;SDS011;66129;45.890;13.714;2023-12-20T02:52:23;16.92;;;8.48;;
77158;SDS011;66129;45.890;13.714;2023-12-20T02:54:49;13.18;;;7.30;;
77158;SDS011;66129;45.890;13.714;2023-12-20T02:57:15;15.07;;;8.18;;
77158;SDS011;66129;45.890;13.714;2023-12-20T02:59:40;16.33;;;8.40;;
77158;SDS011;66129;45.890;13.714;2023-12-20T03:02:06;10.63;;;6.80;;
77158;SDS011;66129;45.890;13.714;2023-12-20T03:04:31;18.90;;;8.73;;
77158;SDS011;66129;45.890;13.714;2023-12-20T03:06:57;15.38;;;6.68;;
77158;SDS011;66129;45.890;13.714;2023-12-20T03:09:22;15.30;;;7.18;;
77158;SDS011;66129;45.890;13.714;2023-12-20T03:11:47;14.85;;;8.02;;
77158;SDS011;66129;45.890;13.714;2023-12-20T03:14:13;14.18;;;8.35;;
77158;SDS011;66129;45.890;13.714;2023-12-20T03:16:38;13.27;;;7.38;;
77158;SDS011;66129;45.890;13.714;2023-12-20T03:19:04;12.93;;;7.40;;
77158;SDS011;66129;45.890;13.714;2023-12-20T03:21:29;13.63;;;7.22;;
77158;SDS011;66129;45.890;13.714;2023-12-20T03:23:55;17.10;;;7.57;;
77158;SDS011;66129;45.890;13.714;2023-12-20T03:26:20;8.93;;;5.97;;
77158;SDS011;66129;45.890;13.714;2023-12-20T03:28:47;11.27;;;6.22;;
77158;SDS011;66129;45.890;13.714;2023-12-20T03:31:13;17.08;;;6.88;;
77158;SDS011;66129;45.890;13.714;2023-12-20T03:33:39;12.63;;;6.70;;
77158;SDS011;66129;45.890;13.714;2023-12-20T03:36:04;13.80;;;7.75;;
77158;SDS011;66129;45.890;13.714;2023-12-20T03:38:30;15.55;;;7.63;;
77158;SDS011;66129;45.890;13.714;2023-12-20T03:40:55;16.63;;;6.80;;
77158;SDS011;66129;45.890;13.714;2023-12-20T03:43:21;14.73;;;7.43;;
77158;SDS011;66129;45.890;13.714;2023-12-20T03:45:46;14.90;;;6.88;;
77158;SDS011;66129;45.890;13.714;2023-12-20T03:48:12;13.07;;;6.22;;
77158;SDS011;66129;45.890;13.714;2023-12-20T03:50:37;11.98;;;6.07;;
77158;SDS011;66129;45.890;13.714;2023-12-20T03:53:02;9.32;;;6.32;;
77158;SDS011;66129;45.890;13.714;2023-12-20T03:55:29;10.70;;;6.88;;
77158;SDS011;66129;45.890;13.714;2023-12-20T03:57:54;10.95;;;5.93;;
77158;SDS011;66129;45.890;13.714;2023-12-20T04:00:19;9.32;;;6.35;;
77158;SDS011;66129;45.890;13.714;2023-12-20T04:02:45;10.70;;;5.75;;
77158;SDS011;66129;45.890;13.714;2023-12-20T04:05:10;10.13;;;5.50;;
77158;SDS011;66129;45.890;13.714;2023-12-20T04:07:36;10.27;;;6.10;;
77158;SDS011;66129;45.890;13.714;2023-12-20T04:10:02;10.45;;;5.88;;
77158;SDS011;66129;45.890;13.714;2023-12-20T04:12:29;10.45;;;5.88;;
77158;SDS011;66129;45.890;13.714;2023-12-20T04:14:54;13.60;;;6.57;;
77158;SDS011;66129;45.890;13.714;2023-12-20T04:17:20;8.80;;;5.68;;
77158;SDS011;66129;45.890;13.714;2023-12-20T04:19:47;9.55;;;4.68;;
77158;SDS011;66129;45.890;13.714;2023-12-20T04:22:13;12.93;;;5.57;;
77158;SDS011;66129;45.890;13.714;2023-12-20T04:24:39;11.15;;;6.15;;
77158;SDS011;66129;45.890;13.714;2023-12-20T04:27:04;13.55;;;5.68;;
77158;SDS011;66129;45.890;13.714;2023-12-20T04:29:30;8.38;;;4.63;;
77158;SDS011;66129;45.890;13.714;2023-12-20T04:31:55;12.57;;;5.78;;
77158;SDS011;66129;45.890;13.714;2023-12-20T04:34:21;9.90;;;5.43;;
77158;SDS011;66129;45.890;13.714;2023-12-20T04:36:48;10.25;;;5.68;;
77158;SDS011;66129;45.890;13.714;2023-12-20T04:39:13;14.35;;;5.68;;
77158;SDS011;66129;45.890;13.714;2023-12-20T04:41:40;12.32;;;6.63;;
77158;SDS011;66129;45.890;13.714;2023-12-20T04:44:05;12.73;;;6.07;;
77158;SDS011;66129;45.890;13.714;2023-12-20T04:46:31;11.98;;;6.32;;
77158;SDS011;66129;45.890;13.714;2023-12-20T04:48:56;14.32;;;6.30;;
77158;SDS011;66129;45.890;13.714;2023-12-20T04:51:22;11.57;;;6.05;;
77158;SDS011;66129;45.890;13.714;2023-12-20T04:53:48;13.65;;;7.30;;
77158;SDS011;66129;45.890;13.714;2023-12-20T04:56:13;13.65;;;7.63;;
77158;SDS011;66129;45.890;13.714;2023-12-20T04:58:38;10.85;;;6.70;;
77158;SDS011;66129;45.890;13.714;2023-12-20T05:01:05;10.27;;;6.30;;
77158;SDS011;66129;45.890;13.714;2023-12-20T05:03:31;14.48;;;6.38;;
77158;SDS011;66129;45.890;13.714;2023-12-20T05:05:57;8.95;;;4.95;;
77158;SDS011;66129;45.890;13.714;2023-12-20T05:08:22;10.63;;;6.03;;
77158;SDS011;66129;45.890;13.714;2023-12-20T05:10:48;13.63;;;7.03;;
77158;SDS011;66129;45.890;13.714;2023-12-20T05:13:13;25.13;;;10.52;;
77158;SDS011;66129;45.890;13.714;2023-12-20T05:15:39;18.65;;;9.30;;
77158;SDS011;66129;45.890;13.714;2023-12-20T05:18:04;16.30;;;8.60;;
77158;SDS011;66129;45.890;13.714;2023-12-20T05:20:30;19.23;;;8.75;;
77158;SDS011;66129;45.890;13.714;2023-12-20T05:22:55;28.27;;;14.13;;
77158;SDS011;66129;45.890;13.714;2023-12-20T05:25:21;17.00;;;9.00;;
77158;SDS011;66129;45.890;13.714;2023-12-20T05:27:46;15.45;;;7.10;;
77158;SDS011;66129;45.890;13.714;2023-12-20T05:30:12;11.05;;;6.05;;
77158;SDS011;66129;45.890;13.714;2023-12-20T05:32:38;11.02;;;6.05;;
77158;SDS011;66129;45.890;13.714;2023-12-20T05:35:04;15.20;;;7.20;;
77158;SDS011;66129;45.890;13.714;2023-12-20T05:37:30;10.18;;;5.25;;
77158;SDS011;66129;45.890;13.714;2023-12-20T05:39:55;7.95;;;4.88;;
77158;SDS011;66129;45.890;13.714;2023-12-20T05:42:20;13.57;;;6.75;;
77158;SDS011;66129;45.890;13.714;2023-12-20T05:44:46;38.22;;;12.73;;
77158;SDS011;66129;45.890;13.714;2023-12-20T05:47:11;24.67;;;8.60;;
77158;SDS011;66129;45.890;13.714;2023-12-20T05:49:37;48.22;;;18.52;;
77158;SDS011;66129;45.890;13.714;2023-12-20T05:52:02;22.85;;;12.40;;
77158;SDS011;66129;45.890;13.714;2023-12-20T05:54:28;15.75;;;7.72;;
77158;SDS011;66129;45.890;13.714;2023-12-20T05:56:53;12.18;;;7.18;;
77158;SDS011;66129;45.890;13.714;2023-12-20T05:59:19;18.30;;;8.63;;
77158;SDS011;66129;45.890;13.714;2023-12-20T06:01:44;18.95;;;9.43;;
77158;SDS011;66129;45.890;13.714;2023-12-20T06:04:10;18.30;;;8.50;;
77158;SDS011;66129;45.890;13.714;2023-12-20T06:06:40;20.77;;;8.13;;
77158;SDS011;66129;45.890;13.714;2023-12-20T06:09:07;21.38;;;9.95;;
77158;SDS011;66129;45.890;13.714;2023-12-20T06:11:32;17.17;;;8.82;;
77158;SDS011;66129;45.890;13.714;2023-12-20T06:13:58;27.10;;;12.10;;
77158;SDS011;66129;45.890;13.714;2023-12-20T06:16:23;36.42;;;17.52;;
77158;SDS011;66129;45.890;13.714;2023-12-20T06:18:48;20.30;;;10.95;;
77158;SDS011;66129;45.890;13.714;2023-12-20T06:21:14;24.17;;;10.40;;
77158;SDS011;66129;45.890;13.714;2023-12-20T06:23:40;31.88;;;13.93;;
77158;SDS011;66129;45.890;13.714;2023-12-20T06:26:05;28.80;;;12.43;;
77158;SDS011;66129;45.890;13.714;2023-12-20T06:28:31;17.83;;;9.48;;
77158;SDS011;66129;45.890;13.714;2023-12-20T06:30:56;15.45;;;8.52;;
77158;SDS011;66129;45.890;13.714;2023-12-20T06:33:22;15.77;;;10.10;;
77158;SDS011;66129;45.890;13.714;2023-12-20T06:35:48;20.13;;;9.88;;
77158;SDS011;66129;45.890;13.714;2023-12-20T06:38:14;14.93;;;8.23;;
77158;SDS011;66129;45.890;13.714;2023-12-20T06:40:39;10.70;;;6.88;;
77158;SDS011;66129;45.890;13.714;2023-12-20T06:43:06;13.93;;;7.18;;
77158;SDS011;66129;45.890;13.714;2023-12-20T06:45:32;12.73;;;7.13;;
77158;SDS011;66129;45.890;13.714;2023-12-20T06:47:57;13.15;;;6.55;;
77158;SDS011;66129;45.890;13.714;2023-12-20T06:50:23;17.17;;;7.45;;
77158;SDS011;66129;45.890;13.714;2023-12-20T06:52:49;29.70;;;12.43;;
77158;SDS011;66129;45.890;13.714;2023-12-20T06:55:14;34.95;;;15.93;;
77158;SDS011;66129;45.890;13.714;2023-12-20T06:57:40;51.33;;;21.02;;
77158;SDS011;66129;45.890;13.714;2023-12-20T07:00:06;18.65;;;9.80;;
77158;SDS011;66129;45.890;13.714;2023-12-20T07:02:33;15.35;;;8.85;;
77158;SDS011;66129;45.890;13.714;2023-12-20T07:04:59;18.80;;;11.30;;
77158;SDS011;66129;45.890;13.714;2023-12-20T07:07:25;19.77;;;12.45;;
77158;SDS011;66129;45.890;13.714;2023-12-20T07:09:51;19.90;;;10.75;;
77158;SDS011;66129;45.890;13.714;2023-12-20T07:12:16;18.95;;;9.65;;
77158;SDS011;66129;45.890;13.714;2023-12-20T07:14:44;15.85;;;8.50;;
77158;SDS011;66129;45.890;13.714;2023-12-20T07:17:10;13.10;;;7.28;;
77158;SDS011;66129;45.890;13.714;2023-12-20T07:19:38;13.65;;;8.43;;
77158;SDS011;66129;45.890;13.714;2023-12-20T07:22:04;14.63;;;7.68;;
77158;SDS011;66129;45.890;13.714;2023-12-20T07:24:30;12.90;;;6.40;;
77158;SDS011;66129;45.890;13.714;2023-12-20T07:26:56;11.68;;;5.80;;
77158;SDS011;66129;45.890;13.714;2023-12-20T07:29:21;12.10;;;5.88;;
77158;SDS011;66129;45.890;13.714;2023-12-20T07:31:47;11.75;;;6.57;;
77158;SDS011;66129;45.890;13.714;2023-12-20T07:34:12;12.13;;;6.00;;
77158;SDS011;66129;45.890;13.714;2023-12-20T07:36:38;12.00;;;6.30;;
77158;SDS011;66129;45.890;13.714;2023-12-20T07:39:03;10.07;;;5.22;;
77158;SDS011;66129;45.890;13.714;2023-12-20T07:41:29;12.73;;;6.68;;
77158;SDS011;66129;45.890;13.714;2023-12-20T07:43:54;11.48;;;7.40;;
77158;SDS011;66129;45.890;13.714;2023-12-20T07:46:21;11.93;;;5.72;;
77158;SDS011;66129;45.890;13.714;2023-12-20T07:48:49;14.55;;;5.95;;
77158;SDS011;66129;45.890;13.714;2023-12-20T07:51:14;15.93;;;7.43;;
77158;SDS011;66129;45.890;13.714;2023-12-20T07:53:41;18.75;;;8.00;;
77158;SDS011;66129;45.890;13.714;2023-12-20T07:56:14;20.55;;;8.48;;
77158;SDS011;66129;45.890;13.714;2023-12-20T07:58:43;14.77;;;7.78;;
77158;SDS011;66129;45.890;13.714;2023-12-20T08:01:10;13.52;;;7.00;;
77158;SDS011;66129;45.890;13.714;2023-12-20T08:03:36;13.13;;;6.32;;
77158;SDS011;66129;45.890;13.714;2023-12-20T08:06:02;17.85;;;8.43;;
77158;SDS011;66129;45.890;13.714;2023-12-20T08:08:27;13.00;;;5.93;;
77158;SDS011;66129;45.890;13.714;2023-12-20T08:10:53;9.77;;;5.88;;
77158;SDS011;66129;45.890;13.714;2023-12-20T08:13:18;14.23;;;7.10;;
77158;SDS011;66129;45.890;13.714;2023-12-20T08:15:44;8.57;;;5.75;;
77158;SDS011;66129;45.890;13.714;2023-12-20T08:18:09;9.90;;;5.70;;
77158;SDS011;66129;45.890;13.714;2023-12-20T08:20:35;14.35;;;6.10;;
77158;SDS011;66129;45.890;13.714;2023-12-20T08:23:00;10.43;;;5.05;;
77158;SDS011;66129;45.890;13.714;2023-12-20T08:25:26;14.93;;;8.60;;
77158;SDS011;66129;45.890;13.714;2023-12-20T08:27:52;13.43;;;8.00;;
77158;SDS011;66129;45.890;13.714;2023-12-20T08:30:18;13.20;;;7.32;;
77158;SDS011;66129;45.890;13.714;2023-12-20T08:32:46;12.75;;;6.75;;
77158;SDS011;66129;45.890;13.714;2023-12-20T08:35:14;22.13;;;11.75;;
77158;SDS011;66129;45.890;13.714;2023-12-20T08:37:40;25.55;;;12.88;;
77158;SDS011;66129;45.890;13.714;2023-12-20T08:40:06;29.75;;;15.57;;
77158;SDS011;66129;45.890;13.714;2023-12-20T08:42:31;28.50;;;15.40;;
77158;SDS011;66129;45.890;13.714;2023-12-20T08:44:57;20.33;;;9.52;;
77158;SDS011;66129;45.890;13.714;2023-12-20T08:47:25;17.45;;;8.45;;
77158;SDS011;66129;45.890;13.714;2023-12-20T08:49:51;18.73;;;12.07;;
77158;SDS011;66129;45.890;13.714;2023-12-20T08:52:21;13.73;;;7.93;;
77158;SDS011;66129;45.890;13.714;2023-12-20T08:54:48;23.30;;;10.88;;
77158;SDS011;66129;45.890;13.714;2023-12-20T08:57:14;29.08;;;12.45;;
77158;SDS011;66129;45.890;13.714;2023-12-20T08:59:39;29.65;;;14.70;;
77158;SDS011;66129;45.890;13.714;2023-12-20T09:02:05;24.35;;;12.45;;
77158;SDS011;66129;45.890;13.714;2023-12-20T09:04:30;26.38;;;13.43;;
77158;SDS011;66129;45.890;13.714;2023-12-20T09:06:55;35.65;;;15.70;;
77158;SDS011;66129;45.890;13.714;2023-12-20T09:09:24;34.63;;;15.77;;
77158;SDS011;66129;45.890;13.714;2023-12-20T09:11:50;40.70;;;17.13;;
77158;SDS011;66129;45.890;13.714;2023-12-20T09:14:16;31.98;;;15.27;;
77158;SDS011;66129;45.890;13.714;2023-12-20T09:16:42;34.78;;;16.15;;
77158;SDS011;66129;45.890;13.714;2023-12-20T09:19:07;33.88;;;16.38;;
77158;SDS011;66129;45.890;13.714;2023-12-20T09:21:32;36.40;;;16.30;;
77158;SDS011;66129;45.890;13.714;2023-12-20T09:23:58;64.97;;;24.50;;
77158;SDS011;66129;45.890;13.714;2023-12-20T09:26:23;30.45;;;15.25;;
77158;SDS011;66129;45.890;13.714;2023-12-20T09:28:49;56.40;;;24.65;;
77158;SDS011;66129;45.890;13.714;2023-12-20T09:31:14;41.03;;;19.67;;
77158;SDS011;66129;45.890;13.714;2023-12-20T09:33:40;32.20;;;16.38;;
77158;SDS011;66129;45.890;13.714;2023-12-20T09:36:05;22.65;;;12.63;;
77158;SDS011;66129;45.890;13.714;2023-12-20T09:38:31;24.23;;;13.45;;
77158;SDS011;66129;45.890;13.714;2023-12-20T09:40:56;22.90;;;13.00;;
77158;SDS011;66129;45.890;13.714;2023-12-20T09:43:23;24.73;;;12.70;;
77158;SDS011;66129;45.890;13.714;2023-12-20T09:45:52;23.75;;;15.23;;
77158;SDS011;66129;45.890;13.714;2023-12-20T09:48:18;30.85;;;13.02;;
77158;SDS011;66129;45.890;13.714;2023-12-20T09:50:44;23.35;;;12.95;;
77158;SDS011;66129;45.890;13.714;2023-12-20T09:53:12;26.90;;;14.07;;
77158;SDS011;66129;45.890;13.714;2023-12-20T09:55:41;24.23;;;13.25;;
77158;SDS011;66129;45.890;13.714;2023-12-20T09:58:07;18.25;;;9.13;;
77158;SDS011;66129;45.890;13.714;2023-12-20T10:00:34;13.40;;;6.75;;
77158;SDS011;66129;45.890;13.714;2023-12-20T10:03:00;11.35;;;6.65;;
77158;SDS011;66129;45.890;13.714;2023-12-20T10:05:27;14.48;;;7.80;;
77158;SDS011;66129;45.890;13.714;2023-12-20T10:07:54;13.27;;;6.97;;
77158;SDS011;66129;45.890;13.714;2023-12-20T10:10:19;11.95;;;6.43;;
77158;SDS011;66129;45.890;13.714;2023-12-20T10:13:01;8.55;;;5.22;;
77158;SDS011;66129;45.890;13.714;2023-12-20T10:15:32;12.63;;;6.65;;
77158;SDS011;66129;45.890;13.714;2023-12-20T10:17:58;16.25;;;7.97;;
77158;SDS011;66129;45.890;13.714;2023-12-20T10:20:24;14.38;;;8.70;;
77158;SDS011;66129;45.890;13.714;2023-12-20T10:22:50;12.88;;;6.47;;
77158;SDS011;66129;45.890;13.714;2023-12-20T10:25:18;13.10;;;6.05;;
77158;SDS011;66129;45.890;13.714;2023-12-20T10:27:45;11.82;;;6.07;;
77158;SDS011;66129;45.890;13.714;2023-12-20T10:30:11;12.98;;;6.22;;
77158;SDS011;66129;45.890;13.714;2023-12-20T10:32:36;14.75;;;6.95;;
77158;SDS011;66129;45.890;13.714;2023-12-20T10:35:02;13.77;;;8.15;;
77158;SDS011;66129;45.890;13.714;2023-12-20T10:37:28;17.23;;;9.60;;
77158;SDS011;66129;45.890;13.714;2023-12-20T10:39:53;15.00;;;7.40;;
77158;SDS011;66129;45.890;13.714;2023-12-20T10:42:23;11.60;;;6.85;;
77158;SDS011;66129;45.890;13.714;2023-12-20T10:44:51;16.65;;;9.30;;
77158;SDS011;66129;45.890;13.714;2023-12-20T10:47:18;13.35;;;8.05;;
77158;SDS011;66129;45.890;13.714;2023-12-20T10:49:44;24.58;;;11.65;;
77158;SDS011;66129;45.890;13.714;2023-12-20T10:52:11;23.13;;;11.07;;
77158;SDS011;66129;45.890;13.714;2023-12-20T10:54:40;18.77;;;9.23;;
77158;SDS011;66129;45.890;13.714;2023-12-20T10:57:06;31.02;;;11.50;;
77158;SDS011;66129;45.890;13.714;2023-12-20T10:59:32;24.83;;;10.98;;
77158;SDS011;66129;45.890;13.714;2023-12-20T11:02:00;15.40;;;8.82;;
77158;SDS011;66129;45.890;13.714;2023-12-20T11:04:31;17.00;;;8.73;;
77158;SDS011;66129;45.890;13.714;2023-12-20T11:07:12;23.23;;;10.18;;
77158;SDS011;66129;45.890;13.714;2023-12-20T11:10:03;25.95;;;10.13;;
77158;SDS011;66129;45.890;13.714;2023-12-20T11:12:43;15.60;;;8.68;;
77158;SDS011;66129;45.890;13.714;2023-12-20T11:15:15;13.50;;;7.18;;
77158;SDS011;66129;45.890;13.714;2023-12-20T11:17:42;15.00;;;7.63;;
77158;SDS011;66129;45.890;13.714;2023-12-20T11:20:10;14.88;;;7.15;;
77158;SDS011;66129;45.890;13.714;2023-12-20T11:22:36;15.48;;;8.40;;
77158;SDS011;66129;45.890;13.714;2023-12-20T11:25:04;18.05;;;8.32;;
77158;SDS011;66129;45.890;13.714;2023-12-20T11:27:34;17.70;;;8.25;;
77158;SDS011;66129;45.890;13.714;2023-12-20T11:30:00;13.60;;;6.90;;
77158;SDS011;66129;45.890;13.714;2023-12-20T11:32:28;20.33;;;11.35;;
77158;SDS011;66129;45.890;13.714;2023-12-20T11:34:59;15.57;;;8.18;;
77158;SDS011;66129;45.890;13.714;2023-12-20T11:37:29;14.93;;;8.27;;
77158;SDS011;66129;45.890;13.714;2023-12-20T11:40:02;15.48;;;8.57;;
77158;SDS011;66129;45.890;13.714;2023-12-20T11:42:32;18.27;;;9.60;;
77158;SDS011;66129;45.890;13.714;2023-12-20T11:45:10;18.67;;;10.40;;
77158;SDS011;66129;45.890;13.714;2023-12-20T11:47:36;28.88;;;12.75;;
77158;SDS011;66129;45.890;13.714;2023-12-20T11:50:03;24.63;;;13.02;;
77158;SDS011;66129;45.890;13.714;2023-12-20T11:52:30;25.35;;;12.27;;
77158;SDS011;66129;45.890;13.714;2023-12-20T11:54:56;18.02;;;9.52;;
77158;SDS011;66129;45.890;13.714;2023-12-20T11:57:22;18.13;;;10.30;;
77158;SDS011;66129;45.890;13.714;2023-12-20T11:59:48;16.30;;;9.38;;
77158;SDS011;66129;45.890;13.714;2023-12-20T12:02:13;19.38;;;10.38;;
77158;SDS011;66129;45.890;13.714;2023-12-20T12:04:41;17.13;;;9.02;;
77158;SDS011;66129;45.890;13.714;2023-12-20T12:07:07;16.88;;;9.75;;
77158;SDS011;66129;45.890;13.714;2023-12-20T12:09:32;16.85;;;8.68;;
77158;SDS011;66129;45.890;13.714;2023-12-20T12:11:58;15.70;;;8.20;;
77158;SDS011;66129;45.890;13.714;2023-12-20T12:14:24;18.25;;;9.65;;
77158;SDS011;66129;45.890;13.714;2023-12-20T12:16:49;19.05;;;9.68;;
77158;SDS011;66129;45.890;13.714;2023-12-20T12:19:19;17.92;;;8.57;;
77158;SDS011;66129;45.890;13.714;2023-12-20T12:21:49;22.90;;;10.05;;
77158;SDS011;66129;45.890;13.714;2023-12-20T12:24:19;46.22;;;18.45;;
77158;SDS011;66129;45.890;13.714;2023-12-20T12:26:49;35.95;;;13.82;;
77158;SDS011;66129;45.890;13.714;2023-12-20T12:29:18;25.52;;;10.55;;
77158;SDS011;66129;45.890;13.714;2023-12-20T12:31:43;20.48;;;11.15;;
77158;SDS011;66129;45.890;13.714;2023-12-20T12:34:09;27.85;;;13.98;;
77158;SDS011;66129;45.890;13.714;2023-12-20T12:36:35;27.05;;;12.05;;
77158;SDS011;66129;45.890;13.714;2023-12-20T12:39:04;12.95;;;7.18;;
77158;SDS011;66129;45.890;13.714;2023-12-20T12:41:30;13.75;;;8.52;;
77158;SDS011;66129;45.890;13.714;2023-12-20T12:43:55;14.27;;;8.00;;
77158;SDS011;66129;45.890;13.714;2023-12-20T12:46:21;16.75;;;7.97;;
77158;SDS011;66129;45.890;13.714;2023-12-20T12:48:48;16.23;;;7.50;;
77158;SDS011;66129;45.890;13.714;2023-12-20T12:51:15;36.28;;;14.85;;
77158;SDS011;66129;45.890;13.714;2023-12-20T12:53:41;41.47;;;17.15;;
77158;SDS011;66129;45.890;13.714;2023-12-20T12:56:06;19.67;;;10.57;;
77158;SDS011;66129;45.890;13.714;2023-12-20T12:58:33;18.08;;;9.82;;
77158;SDS011;66129;45.890;13.714;2023-12-20T13:00:58;16.77;;;9.45;;
77158;SDS011;66129;45.890;13.714;2023-12-20T13:03:24;16.05;;;11.20;;
77158;SDS011;66129;45.890;13.714;2023-12-20T13:05:50;22.02;;;11.85;;
77158;SDS011;66129;45.890;13.714;2023-12-20T13:08:15;19.60;;;10.90;;
77158;SDS011;66129;45.890;13.714;2023-12-20T13:10:41;15.82;;;8.75;;
77158;SDS011;66129;45.890;13.714;2023-12-20T13:13:06;17.73;;;8.93;;
77158;SDS011;66129;45.890;13.714;2023-12-20T13:15:32;15.82;;;8.73;;
77158;SDS011;66129;45.890;13.714;2023-12-20T13:17:58;77.65;;;34.22;;
77158;SDS011;66129;45.890;13.714;2023-12-20T13:20:25;44.28;;;20.55;;
77158;SDS011;66129;45.890;13.714;2023-12-20T13:22:50;21.63;;;11.98;;
77158;SDS011;66129;45.890;13.714;2023-12-20T13:25:16;26.90;;;15.43;;
77158;SDS011;66129;45.890;13.714;2023-12-20T13:27:41;24.27;;;14.38;;
77158;SDS011;66129;45.890;13.714;2023-12-20T13:30:07;27.23;;;15.60;;
77158;SDS011;66129;45.890;13.714;2023-12-20T13:32:33;26.75;;;15.95;;
77158;SDS011;66129;45.890;13.714;2023-12-20T13:34:58;27.98;;;15.25;;
77158;SDS011;66129;45.890;13.714;2023-12-20T13:37:24;27.88;;;15.18;;
77158;SDS011;66129;45.890;13.714;2023-12-20T13:39:49;23.20;;;13.85;;
77158;SDS011;66129;45.890;13.714;2023-12-20T13:42:15;19.38;;;12.30;;
77158;SDS011;66129;45.890;13.714;2023-12-20T13:44:41;25.27;;;13.50;;
77158;SDS011;66129;45.890;13.714;2023-12-20T13:47:06;34.28;;;16.15;;
77158;SDS011;66129;45.890;13.714;2023-12-20T13:49:33;60.92;;;28.60;;
77158;SDS011;66129;45.890;13.714;2023-12-20T13:51:58;32.92;;;17.95;;
77158;SDS011;66129;45.890;13.714;2023-12-20T13:54:24;27.33;;;13.93;;
77158;SDS011;66129;45.890;13.714;2023-12-20T13:56:50;25.00;;;15.50;;
77158;SDS011;66129;45.890;13.714;2023-12-20T13:59:15;32.80;;;15.70;;
77158;SDS011;66129;45.890;13.714;2023-12-20T14:01:41;31.45;;;15.63;;
77158;SDS011;66129;45.890;13.714;2023-12-20T14:04:06;35.70;;;18.33;;
77158;SDS011;66129;45.890;13.714;2023-12-20T14:06:32;34.00;;;17.50;;
77158;SDS011;66129;45.890;13.714;2023-12-20T14:08:58;28.33;;;15.48;;
77158;SDS011;66129;45.890;13.714;2023-12-20T14:11:27;34.63;;;17.65;;
77158;SDS011;66129;45.890;13.714;2023-12-20T14:13:52;29.10;;;15.63;;